createdAt,value
2022-09-28T00:03:25.913Z,4
2022-09-28T00:08:07.217Z,4
2022-09-28T00:12:49.530Z,4
2022-09-28T00:17:31.839Z,4
2022-09-28T00:22:14.057Z,4
2022-09-28T00:26:56.359Z,4
2022-09-28T00:31:38.672Z,4
2022-09-28T00:36:20.887Z,4
2022-09-28T00:41:03.248Z,4
2022-09-28T00:45:45.510Z,4
2022-09-28T00:50:27.747Z,4
2022-09-28T00:55:10.042Z,12
2022-09-28T00:59:52.345Z,12
2022-09-28T01:04:34.560Z,12
2022-09-28T01:09:15.869Z,9
2022-09-28T01:13:58.184Z,12
2022-09-28T01:18:40.493Z,9
2022-09-28T01:23:22.907Z,9
2022-09-28T01:28:05.017Z,9
2022-09-28T01:32:47.327Z,9
2022-09-28T01:37:29.542Z,9
2022-09-28T01:42:11.860Z,9
2022-09-28T01:46:54.170Z,9
2022-09-28T01:51:36.375Z,9
2022-09-28T01:56:18.689Z,9
2022-09-28T02:01:01.005Z,9
2022-09-28T02:05:43.315Z,9
2022-09-28T02:10:24.527Z,9
2022-09-28T02:15:06.839Z,4
2022-09-28T02:19:49.150Z,4
2022-09-28T02:24:31.364Z,4
2022-09-28T02:29:13.675Z,4
2022-09-28T02:33:55.999Z,4
2022-09-28T02:38:38.301Z,4
2022-09-28T02:43:20.512Z,4
2022-09-28T02:48:02.822Z,4
2022-09-28T02:52:45.175Z,4
2022-09-28T02:57:27.370Z,4
2022-09-28T03:02:09.657Z,4
2022-09-28T03:06:51.971Z,4
2022-09-28T03:11:33.195Z,4
2022-09-28T03:16:15.499Z,4
2022-09-28T03:20:57.804Z,4
2022-09-28T03:25:40.119Z,4
2022-09-28T03:30:22.332Z,4
2022-09-28T03:35:04.641Z,4
2022-09-28T03:39:46.954Z,4
2022-09-28T03:44:29.165Z,12
2022-09-28T03:49:11.487Z,12
2022-09-28T03:53:53.789Z,12
2022-09-28T03:58:36.000Z,12
2022-09-28T04:03:18.317Z,12
2022-09-28T04:08:00.628Z,12
2022-09-28T04:12:42.037Z,12
2022-09-28T04:17:24.148Z,12
2022-09-28T04:22:06.458Z,12
2022-09-28T04:26:48.775Z,12
2022-09-28T04:31:30.982Z,12
2022-09-28T04:36:13.299Z,12
2022-09-28T04:40:55.610Z,9
2022-09-28T04:45:37.823Z,13
2022-09-28T04:50:20.135Z,30
2022-09-28T04:55:02.448Z,58
2022-09-28T04:59:44.662Z,78
2022-09-28T05:04:25.970Z,132
2022-09-28T05:09:07.281Z,206
2022-09-28T05:13:49.593Z,335
2022-09-28T05:18:30.914Z,499
2022-09-28T05:23:12.215Z,607
2022-09-28T05:27:54.438Z,474
2022-09-28T05:32:36.739Z,940
2022-09-28T05:37:19.051Z,765
2022-09-28T05:42:01.262Z,585
2022-09-28T05:46:43.569Z,673
2022-09-28T05:51:25.889Z,615
2022-09-28T05:56:08.206Z,444
2022-09-28T06:00:50.412Z,1093
2022-09-28T06:05:32.724Z,1018
2022-09-28T06:10:15.038Z,892
2022-09-28T06:14:57.249Z,1722
2022-09-28T06:19:39.568Z,865
2022-09-28T06:24:20.870Z,1443
2022-09-28T06:29:03.131Z,1974
2022-09-28T06:33:45.461Z,3001
2022-09-28T06:38:27.705Z,5371
2022-09-28T06:43:09.919Z,5129
2022-09-28T06:47:52.230Z,4561
2022-09-28T06:52:34.594Z,5567
2022-09-28T06:57:15.868Z,7514
2022-09-28T07:01:57.170Z,9896
2022-09-28T07:06:39.376Z,7474
2022-09-28T07:11:20.694Z,7836
2022-09-28T07:16:02.007Z,7199
2022-09-28T07:20:44.449Z,9679
2022-09-28T07:25:26.674Z,6827
2022-09-28T07:30:08.836Z,7032
2022-09-28T07:34:51.148Z,12058
2022-09-28T07:39:33.458Z,10186
2022-09-28T07:44:15.737Z,9368
2022-09-28T07:48:57.983Z,11087
2022-09-28T07:53:40.300Z,12041
2022-09-28T07:58:22.513Z,12166
2022-09-28T08:03:04.832Z,10755
2022-09-28T08:07:47.138Z,7776
2022-09-28T08:12:29.345Z,7220
2022-09-28T08:17:10.662Z,11577
2022-09-28T08:21:52.976Z,16702
2022-09-28T08:26:35.284Z,24916
2022-09-28T08:31:17.502Z,13396
2022-09-28T08:35:59.807Z,19786
2022-09-28T08:40:42.117Z,14472
2022-09-28T08:45:24.481Z,16496
2022-09-28T08:50:06.709Z,15402
2022-09-28T08:54:48.957Z,11454
2022-09-28T08:59:31.170Z,16571
2022-09-28T09:04:13.480Z,16794
2022-09-28T09:08:55.812Z,20254
2022-09-28T09:13:38.011Z,41777
2022-09-28T09:18:19.315Z,34408
2022-09-28T09:23:01.631Z,14012
2022-09-28T09:27:43.964Z,13448
2022-09-28T09:32:26.154Z,20781
2022-09-28T09:37:08.462Z,22704
2022-09-28T09:41:50.776Z,28875
2022-09-28T09:46:32.991Z,59147
2022-09-28T09:51:15.304Z,30706
2022-09-28T09:55:57.615Z,6990
2022-09-28T10:00:39.844Z,5478
2022-09-28T10:05:22.138Z,5809
2022-09-28T10:10:04.452Z,5964
2022-09-28T10:14:46.665Z,3277
2022-09-28T10:19:27.969Z,10937
2022-09-28T10:24:10.288Z,13231
2022-09-28T10:28:52.597Z,6716
2022-09-28T10:33:33.909Z,6283
2022-09-28T10:38:15.120Z,12568
2022-09-28T10:42:56.436Z,17068
2022-09-28T10:47:37.739Z,29563
2022-09-28T10:52:20.057Z,12609
2022-09-28T10:57:02.372Z,17546
2022-09-28T11:01:44.581Z,13693
2022-09-28T11:06:26.894Z,15796
2022-09-28T11:11:09.201Z,42666
2022-09-28T11:15:51.414Z,20374
2022-09-28T11:20:33.728Z,16869
2022-09-28T11:25:16.046Z,10424
2022-09-28T11:29:58.260Z,12764
2022-09-28T11:34:40.570Z,16820
2022-09-28T11:39:22.884Z,23628
2022-09-28T11:44:05.093Z,28641
2022-09-28T11:48:46.400Z,13920
2022-09-28T11:53:28.714Z,26463
2022-09-28T11:58:10.925Z,33694
2022-09-28T12:02:53.237Z,36603
2022-09-28T12:07:35.571Z,36371
2022-09-28T12:12:17.765Z,20748
2022-09-28T12:17:00.075Z,49119
2022-09-28T12:21:41.387Z,49607
2022-09-28T12:26:22.699Z,53784
2022-09-28T12:31:05.008Z,26410
2022-09-28T12:35:46.320Z,30526
2022-09-28T12:40:27.531Z,11932
2022-09-28T12:45:09.875Z,7961
2022-09-28T12:49:52.197Z,5313
2022-09-28T12:54:34.365Z,5215
2022-09-28T12:59:16.681Z,5810
2022-09-28T13:03:59.000Z,16235
2022-09-28T13:08:41.201Z,20511
2022-09-28T13:13:23.513Z,16434
2022-09-28T13:18:05.828Z,12983
2022-09-28T13:22:48.042Z,13237
2022-09-28T13:27:30.392Z,22138
2022-09-28T13:32:12.671Z,12702
2022-09-28T13:36:54.879Z,9825
2022-09-28T13:41:36.190Z,8415
2022-09-28T13:46:18.502Z,9809
2022-09-28T13:51:00.814Z,14985
2022-09-28T13:55:43.026Z,15049
2022-09-28T14:00:25.335Z,19463
2022-09-28T14:05:07.648Z,32179
2022-09-28T14:09:49.900Z,25223
2022-09-28T14:14:32.174Z,17363
2022-09-28T14:19:14.486Z,10049
2022-09-28T14:23:56.702Z,9908
2022-09-28T14:28:39.011Z,11519
2022-09-28T14:33:21.362Z,11767
2022-09-28T14:38:03.544Z,10906
2022-09-28T14:42:44.846Z,10444
2022-09-28T14:47:27.151Z,11947
2022-09-28T14:52:09.467Z,8833
2022-09-28T14:56:51.683Z,9087
2022-09-28T15:01:34.000Z,10140
2022-09-28T15:06:16.309Z,10972
2022-09-28T15:10:58.522Z,10581
2022-09-28T15:15:40.827Z,9390
2022-09-28T15:20:23.147Z,7690
2022-09-28T15:25:05.352Z,6829
2022-09-28T15:29:47.666Z,3851
2022-09-28T15:34:30.000Z,2055
2022-09-28T15:39:12.189Z,1664
2022-09-28T15:43:53.504Z,1415
2022-09-28T15:48:34.812Z,1546
2022-09-28T15:53:16.125Z,1230
2022-09-28T15:57:57.449Z,1403
2022-09-28T16:02:38.743Z,1879
2022-09-28T16:07:21.056Z,2168
2022-09-28T16:12:03.267Z,3903
2022-09-28T16:16:45.578Z,3892
2022-09-28T16:21:27.891Z,3495
2022-09-28T16:26:10.114Z,2845
2022-09-28T16:30:52.418Z,2392
2022-09-28T16:35:34.725Z,1979
2022-09-28T16:40:16.940Z,1574
2022-09-28T16:44:59.286Z,1158
2022-09-28T16:49:41.561Z,747
2022-09-28T16:54:23.775Z,438
2022-09-28T16:59:06.089Z,290
2022-09-28T17:03:47.398Z,152
2022-09-28T17:08:29.716Z,39
2022-09-28T17:13:12.041Z,51
2022-09-28T17:17:54.391Z,24
2022-09-28T17:22:36.554Z,30
2022-09-28T17:27:18.911Z,15
2022-09-28T17:32:01.159Z,9
2022-09-28T17:36:43.547Z,9
2022-09-28T17:41:25.758Z,9
2022-09-28T17:46:08.046Z,9
2022-09-28T17:50:50.364Z,9
2022-09-28T17:55:32.583Z,9
2022-09-28T18:00:14.902Z,9
2022-09-28T18:04:56.209Z,9
2022-09-28T18:09:38.494Z,9
2022-09-28T18:14:20.705Z,9
2022-09-28T18:19:03.033Z,9
2022-09-28T18:23:45.360Z,9
2022-09-28T18:28:27.565Z,9
2022-09-28T18:33:09.880Z,9
2022-09-28T18:37:52.194Z,9
2022-09-28T18:42:34.412Z,9
2022-09-28T18:47:16.718Z,9
2022-09-28T18:51:58.997Z,9
2022-09-28T18:56:41.232Z,9
2022-09-28T19:01:23.522Z,9
2022-09-28T19:06:04.868Z,9
2022-09-28T19:10:47.017Z,9
2022-09-28T19:15:29.227Z,9
2022-09-28T19:20:11.661Z,9
2022-09-28T19:24:54.013Z,9
2022-09-28T19:29:36.215Z,9
2022-09-28T19:34:18.378Z,4
2022-09-28T19:39:00.706Z,4
2022-09-28T19:43:43.046Z,4
2022-09-28T19:48:25.214Z,4
2022-09-28T19:53:07.647Z,4
2022-09-28T19:57:49.936Z,4
2022-09-28T20:02:32.055Z,4
2022-09-28T20:07:13.461Z,4
2022-09-28T20:11:55.839Z,4
2022-09-28T20:16:37.929Z,4
2022-09-28T20:21:20.337Z,4
2022-09-28T20:26:02.650Z,4
2022-09-28T20:30:44.840Z,4
2022-09-28T20:35:27.192Z,4
2022-09-28T20:40:09.489Z,4
2022-09-28T20:44:51.914Z,4
2022-09-28T20:49:34.003Z,4
2022-09-28T20:54:16.183Z,4
2022-09-28T20:58:58.499Z,4
2022-09-28T21:03:40.849Z,4
2022-09-28T21:08:22.160Z,4
2022-09-28T21:13:04.325Z,4
2022-09-28T21:17:46.714Z,4
2022-09-28T21:22:28.866Z,4
2022-09-28T21:27:11.308Z,4
2022-09-28T21:31:53.475Z,4
2022-09-28T21:36:35.688Z,4
2022-09-28T21:41:18.156Z,4
2022-09-28T21:46:00.312Z,4
2022-09-28T21:50:42.675Z,4
2022-09-28T21:55:25.016Z,4
2022-09-28T22:00:07.303Z,4
2022-09-28T22:04:49.505Z,4
2022-09-28T22:09:30.816Z,4
2022-09-28T22:14:13.120Z,4
2022-09-28T22:18:55.442Z,4
2022-09-28T22:23:37.551Z,4
2022-09-28T22:28:19.818Z,4
2022-09-28T22:33:02.135Z,4
2022-09-28T22:37:44.394Z,4
2022-09-28T22:42:26.657Z,4
2022-09-28T22:47:09.070Z,4
2022-09-28T22:51:51.284Z,4
2022-09-28T22:56:33.493Z,4
2022-09-28T23:01:14.803Z,4
2022-09-28T23:05:57.193Z,4
2022-09-28T23:10:39.405Z,4
2022-09-28T23:15:21.742Z,4
2022-09-28T23:20:04.022Z,9
2022-09-28T23:24:46.228Z,9
2022-09-28T23:29:28.484Z,9
2022-09-28T23:34:10.866Z,9
2022-09-28T23:38:53.124Z,9
2022-09-28T23:43:35.307Z,9
2022-09-28T23:48:17.655Z,9
2022-09-28T23:53:00.025Z,9
2022-09-28T23:57:42.150Z,9
